Cricklewood, United Kingdom
Current Conditions -  °F | °C
As of 2:50 AM on Thursday 23 Oct 2014 (Local Time) from EGWU Reporting Station
Broken Clouds Broken Clouds  
Wind Chill: 52°   Ceiling: 3200
Heat Index: 52°   Visibility: 6mi
Dew Point: 46°   Wind: 6mph
Humidity: 82%   Direction: 230°SW
Pressure: 30.18"   Gusts: NA
Location:  51.56°N, 0.21°W
Report Text: EGWU 230150Z AUTO 23005KT 9999 // BKN032/// 11/08 Q1022
Loading
Personal Weather Stations






























Interactive Weather Map
Tropical Storm Tracking
New forecast layout! Learn more

10-Day Weather Forecast

Advertisements
Track Severe Weather on mobile